Terminal Aerodrome Forecast
Issued by NWS

Home | Current Version | Previous Version | Text Only | Print | Product List | Glossary On
Versions: 1 2 3 4 5 6 7 8 9 10 11 12 13 14 15 16 17 18 19 20 21 22 23 24
932
FTUS44 KMOB 281723
TAFBFM
TAF
KBFM 281723Z 2818/2918 15009KT P6SM VCSH SCT040 BKN150
     FM290100 VRB03KT P6SM FEW050 SCT150=

USA.gov is the U.S. government's official web portal to all federal, state and local government web resources and services.